Time;durP1;ratioP1;P1;durP2;ratioP2;P2;SDS_P1;SDS_P2;PMS_P1;PMS_P2;Temp;Humidity;BMP_temperature;BMP_pressure;BME280_temperature;BME280_humidity;BME280_pressure;Samples;Min_cycle;Max_cycle;Signal;HPM_P1;HPM_P2
2021/01/23 00:02:00;;;;;;;15.47;6.87;;;3.60;99.90;;;;;;4945482;29;20236;-79
2021/01/23 00:04:27;;;;;;;10.07;6.57;;;3.60;99.90;;;;;;4960036;28;20617;-78
2021/01/23 00:06:53;;;;;;;15.30;7.10;;;3.60;99.90;;;;;;4959344;28;20217;-78
2021/01/23 00:09:19;;;;;;;13.90;7.13;;;3.60;99.90;;;;;;4945517;29;20217;-78
2021/01/23 00:11:46;;;;;;;16.37;7.47;;;3.60;99.90;;;;;;4958561;28;20229;-79
2021/01/23 00:14:12;;;;;;;11.87;6.97;;;3.60;99.90;;;;;;4964646;28;20209;-79
2021/01/23 00:16:38;;;;;;;15.93;7.73;;;3.60;99.90;;;;;;4948943;28;20233;-79
2021/01/23 00:19:05;;;;;;;14.27;7.13;;;3.50;99.90;;;;;;4949211;29;20220;-79
2021/01/23 00:21:32;;;;;;;12.67;7.33;;;3.50;99.90;;;;;;4949200;28;20212;-78
2021/01/23 00:23:58;;;;;;;12.40;7.30;;;3.50;99.90;;;;;;4949415;28;20201;-81
2021/01/23 00:26:24;;;;;;;13.50;7.00;;;3.40;99.90;;;;;;4949118;29;20197;-79
2021/01/23 00:28:50;;;;;;;14.87;7.10;;;3.40;99.90;;;;;;4949238;28;20209;-78
2021/01/23 00:31:17;;;;;;;17.57;8.63;;;3.40;99.90;;;;;;4949234;28;20201;-79
2021/01/23 00:33:44;;;;;;;12.93;8.00;;;3.40;99.90;;;;;;4948840;29;20304;-79
2021/01/23 00:36:10;;;;;;;14.47;7.73;;;3.30;99.90;;;;;;4948721;29;20233;-79
2021/01/23 00:38:37;;;;;;;11.97;7.10;;;3.40;99.90;;;;;;4948717;29;20241;-80
2021/01/23 00:41:04;;;;;;;13.93;7.83;;;3.30;99.90;;;;;;4949516;28;20221;-79
2021/01/23 00:43:30;;;;;;;13.83;6.80;;;3.30;99.90;;;;;;4948523;29;20201;-79
2021/01/23 00:45:56;;;;;;;15.23;8.67;;;3.30;99.90;;;;;;4948791;29;20269;-78
2021/01/23 00:48:22;;;;;;;16.63;7.70;;;3.30;99.90;;;;;;4950094;28;20220;-79
2021/01/23 00:50:49;;;;;;;13.90;7.87;;;3.20;99.90;;;;;;4948714;28;20206;-79
2021/01/23 00:53:15;;;;;;;12.17;7.40;;;3.20;99.90;;;;;;4948875;28;20209;-78
2021/01/23 00:55:42;;;;;;;15.27;8.23;;;3.30;99.90;;;;;;4948709;28;20296;-80
2021/01/23 00:58:09;;;;;;;17.17;8.60;;;3.20;99.90;;;;;;4948882;28;20244;-79
2021/01/23 01:00:35;;;;;;;18.73;8.57;;;3.20;99.90;;;;;;4948966;28;20201;-79
2021/01/23 01:03:02;;;;;;;19.70;9.10;;;3.20;99.90;;;;;;4948549;28;20216;-79
2021/01/23 01:05:28;;;;;;;16.53;9.03;;;3.20;99.90;;;;;;4948558;29;20217;-79
2021/01/23 01:07:54;;;;;;;18.53;9.57;;;3.20;99.90;;;;;;4949034;29;20221;-79
2021/01/23 01:10:20;;;;;;;15.87;8.50;;;3.20;99.90;;;;;;4948220;28;20209;-78
2021/01/23 01:12:48;;;;;;;22.90;9.63;;;3.10;99.90;;;;;;4948035;29;20787;-79
2021/01/23 01:15:14;;;;;;;17.17;10.30;;;3.20;99.90;;;;;;4949170;29;20232;-79
2021/01/23 01:17:40;;;;;;;17.47;9.67;;;3.10;99.90;;;;;;4947799;28;20257;-78
2021/01/23 01:20:08;;;;;;;18.53;9.70;;;3.10;99.90;;;;;;4948007;29;20214;-79
2021/01/23 01:22:34;;;;;;;12.13;9.33;;;3.10;99.90;;;;;;4948183;28;20217;-78
2021/01/23 01:25:00;;;;;;;14.57;9.80;;;3.10;99.90;;;;;;4947732;29;20900;-78
2021/01/23 01:27:26;;;;;;;23.97;10.83;;;3.10;99.90;;;;;;4947785;28;20213;-79
2021/01/23 01:29:54;;;;;;;16.70;9.20;;;3.00;99.90;;;;;;4947741;28;20233;-79
2021/01/23 01:32:20;;;;;;;18.70;12.10;;;3.00;99.90;;;;;;4945746;28;20212;-79
2021/01/23 01:34:46;;;;;;;17.67;10.67;;;3.00;99.90;;;;;;4946698;29;20232;-79
2021/01/23 01:37:13;;;;;;;20.90;11.93;;;3.00;99.90;;;;;;4946988;28;20209;-79
2021/01/23 01:39:39;;;;;;;17.03;10.93;;;3.10;99.90;;;;;;4946949;29;20536;-80
2021/01/23 01:42:06;;;;;;;19.43;11.97;;;3.10;99.90;;;;;;4946909;29;20487;-79
2021/01/23 01:44:32;;;;;;;20.30;12.67;;;3.10;99.90;;;;;;4946650;28;20204;-79
2021/01/23 01:47:00;;;;;;;25.67;11.63;;;3.10;99.90;;;;;;4946555;28;20213;-79
2021/01/23 01:49:27;;;;;;;20.87;12.97;;;3.00;99.90;;;;;;4947361;29;20209;-78
2021/01/23 01:51:54;;;;;;;20.20;11.53;;;3.00;99.90;;;;;;4947120;29;20212;-80
2021/01/23 01:54:22;;;;;;;22.90;11.30;;;3.10;99.90;;;;;;4946881;28;20696;-78
2021/01/23 01:56:49;;;;;;;20.97;12.30;;;3.10;99.90;;;;;;4947493;29;20241;-78
2021/01/23 01:59:15;;;;;;;17.90;11.37;;;3.10;99.90;;;;;;4947180;29;20519;-78
2021/01/23 02:01:41;;;;;;;23.10;12.37;;;3.10;99.90;;;;;;4947228;28;20213;-78
2021/01/23 02:04:28;;;;;;;22.37;12.47;;;3.10;99.90;;;;;;4947216;29;20211;-79
2021/01/23 02:07:18;;;;;;;19.30;12.80;;;3.10;99.90;;;;;;4946882;28;20221;-79
2021/01/23 02:10:15;;;;;;;21.80;11.60;;;3.20;99.90;;;;;;4947239;28;20237;-81
2021/01/23 02:12:59;;;;;;;19.37;11.67;;;3.10;99.90;;;;;;4943486;28;20205;-79
2021/01/23 02:15:33;;;;;;;18.00;12.30;;;3.20;99.90;;;;;;4947012;28;20272;-78
2021/01/23 02:18:05;;;;;;;22.83;12.17;;;3.20;99.90;;;;;;4948298;29;20209;-78
2021/01/23 02:21:09;;;;;;;20.87;12.13;;;3.20;99.90;;;;;;4959900;28;20215;-78
2021/01/23 02:23:38;;;;;;;22.77;12.20;;;3.20;99.90;;;;;;4966023;28;20211;-79
2021/01/23 02:26:12;;;;;;;26.23;13.40;;;3.20;99.90;;;;;;4966998;28;20872;-79
2021/01/23 02:29:02;;;;;;;21.17;12.20;;;3.30;99.90;;;;;;4959173;28;20613;-79
2021/01/23 02:31:34;;;;;;;18.83;12.17;;;3.30;99.90;;;;;;4947696;29;20197;-79
2021/01/23 02:34:01;;;;;;;20.20;12.57;;;3.30;99.90;;;;;;4948746;28;20731;-79
2021/01/23 02:36:30;;;;;;;23.07;13.13;;;3.40;99.90;;;;;;4948071;28;20757;-81
2021/01/23 02:38:57;;;;;;;24.67;13.40;;;3.40;99.90;;;;;;4946129;28;20347;-80
2021/01/23 02:41:24;;;;;;;23.90;13.60;;;3.40;99.90;;;;;;4945754;28;20209;-81
2021/01/23 02:43:50;;;;;;;28.17;14.57;;;3.50;99.90;;;;;;4945415;28;20212;-81
2021/01/23 02:46:18;;;;;;;28.07;15.23;;;3.50;99.90;;;;;;4946468;29;20256;-81
2021/01/23 02:48:47;;;;;;;21.50;13.57;;;3.50;99.90;;;;;;4948299;28;20216;-81
2021/01/23 02:51:21;;;;;;;24.77;14.70;;;3.50;99.90;;;;;;4949926;29;20583;-81
2021/01/23 02:53:50;;;;;;;23.00;15.00;;;3.60;99.90;;;;;;4957272;28;20208;-82
2021/01/23 02:56:24;;;;;;;22.57;14.53;;;3.60;99.90;;;;;;4967032;28;20976;-81
2021/01/23 02:58:52;;;;;;;27.53;14.73;;;3.60;99.90;;;;;;4965738;28;20205;-81
2021/01/23 03:01:22;;;;;;;25.80;14.70;;;3.60;99.90;;;;;;4964002;28;20213;-82
2021/01/23 03:03:52;;;;;;;23.07;15.20;;;3.60;99.90;;;;;;4946754;29;20720;-82
2021/01/23 03:06:19;;;;;;;19.20;14.77;;;3.70;99.90;;;;;;4947202;29;20202;-79
2021/01/23 03:08:46;;;;;;;24.70;15.83;;;3.70;99.90;;;;;;4946446;28;20228;-82
2021/01/23 03:11:12;;;;;;;27.13;16.70;;;3.70;99.90;;;;;;4954366;28;20870;-81
2021/01/23 03:13:38;;;;;;;24.93;15.63;;;3.70;99.90;;;;;;4964846;28;20200;-83
2021/01/23 03:16:05;;;;;;;25.60;17.87;;;3.70;99.90;;;;;;4958255;28;20637;-77
2021/01/23 03:18:32;;;;;;;25.40;16.63;;;3.80;99.90;;;;;;4948570;29;20645;-80
2021/01/23 03:20:59;;;;;;;28.93;18.47;;;3.80;99.90;;;;;;4949237;29;20212;-81
2021/01/23 03:23:25;;;;;;;24.60;16.80;;;3.80;99.90;;;;;;4948112;29;20201;-80
2021/01/23 03:25:52;;;;;;;25.13;18.30;;;3.80;99.90;;;;;;4948575;28;20209;-78
2021/01/23 03:28:20;;;;;;;26.53;18.07;;;3.80;99.90;;;;;;4948242;29;20212;-78
2021/01/23 03:30:49;;;;;;;25.70;18.60;;;3.80;99.90;;;;;;4948457;28;20534;-81
2021/01/23 03:33:15;;;;;;;30.37;20.70;;;3.80;99.90;;;;;;4948598;28;20193;-82
2021/01/23 03:35:43;;;;;;;31.60;21.10;;;3.90;99.90;;;;;;4952858;28;20220;-80
2021/01/23 03:38:10;;;;;;;30.13;21.40;;;3.90;99.90;;;;;;4966293;28;20489;-80
2021/01/23 03:40:37;;;;;;;29.60;21.40;;;3.90;99.90;;;;;;4967495;28;20220;-81
2021/01/23 03:43:03;;;;;;;37.97;21.73;;;3.90;99.90;;;;;;4967517;28;20215;-81
2021/01/23 03:45:29;;;;;;;32.07;21.97;;;3.90;99.90;;;;;;4959237;28;20407;-79
2021/01/23 03:47:55;;;;;;;33.00;21.77;;;3.90;99.90;;;;;;4947944;29;20236;-81
2021/01/23 03:50:22;;;;;;;35.43;22.87;;;3.90;99.90;;;;;;4949026;28;20205;-81
2021/01/23 03:52:48;;;;;;;36.37;23.27;;;4.00;99.90;;;;;;4951575;28;20508;-80
2021/01/23 03:55:15;;;;;;;35.83;24.03;;;4.00;99.90;;;;;;4951184;29;20244;-80
2021/01/23 03:57:42;;;;;;;37.13;24.17;;;4.00;99.90;;;;;;4951425;29;20209;-77
2021/01/23 04:00:09;;;;;;;40.63;25.13;;;4.00;99.90;;;;;;4951664;29;20228;-80
2021/01/23 04:02:36;;;;;;;36.23;24.83;;;4.00;99.90;;;;;;4958942;28;20212;-80
2021/01/23 04:05:03;;;;;;;35.40;25.03;;;4.00;99.90;;;;;;4970989;28;20196;-81
2021/01/23 04:07:29;;;;;;;35.27;24.47;;;4.00;99.90;;;;;;4954830;28;20213;-77
2021/01/23 04:09:55;;;;;;;32.10;23.27;;;4.00;99.90;;;;;;4950485;29;20209;-77
2021/01/23 04:12:22;;;;;;;37.20;25.23;;;4.00;99.90;;;;;;4951609;29;20193;-81
2021/01/23 04:14:49;;;;;;;39.23;26.20;;;4.00;99.90;;;;;;4951971;28;20216;-80
2021/01/23 04:17:15;;;;;;;42.93;26.73;;;4.00;99.90;;;;;;4950817;29;20492;-78
2021/01/23 04:19:41;;;;;;;38.57;26.30;;;4.00;99.90;;;;;;4950610;29;20201;-81
2021/01/23 04:22:08;;;;;;;35.30;24.83;;;4.00;99.90;;;;;;4950821;29;20201;-80
2021/01/23 04:24:34;;;;;;;38.33;26.37;;;4.00;99.90;;;;;;4951038;28;20216;-81
2021/01/23 04:27:00;;;;;;;36.57;25.93;;;4.00;99.90;;;;;;4950144;29;20209;-80
2021/01/23 04:29:27;;;;;;;39.80;27.20;;;4.10;99.90;;;;;;4949324;28;20277;-78
2021/01/23 04:31:54;;;;;;;40.90;28.07;;;4.10;99.90;;;;;;4950177;28;20240;-78
2021/01/23 04:34:20;;;;;;;40.67;26.53;;;4.10;99.90;;;;;;4969789;28;20208;-81
2021/01/23 04:36:46;;;;;;;36.87;25.43;;;4.10;99.90;;;;;;4969562;28;20248;-81
2021/01/23 04:39:13;;;;;;;35.13;25.17;;;4.20;99.90;;;;;;4969612;28;20537;-79
2021/01/23 04:41:39;;;;;;;37.17;25.87;;;4.20;99.90;;;;;;4954615;28;20221;-81
2021/01/23 04:44:06;;;;;;;36.07;26.03;;;4.20;99.90;;;;;;4950061;29;20599;-80
2021/01/23 04:46:33;;;;;;;37.67;25.03;;;4.20;99.90;;;;;;4950324;29;20755;-79
2021/01/23 04:49:00;;;;;;;33.87;24.97;;;4.20;99.90;;;;;;4967731;28;20212;-78
2021/01/23 04:51:26;;;;;;;32.90;23.23;;;4.30;99.90;;;;;;4968472;28;20205;-78
2021/01/23 04:53:53;;;;;;;34.73;24.50;;;4.30;99.90;;;;;;4968739;28;20323;-80
2021/01/23 04:56:20;;;;;;;32.00;23.23;;;4.30;99.90;;;;;;4969390;28;20239;-79
2021/01/23 04:58:46;;;;;;;36.57;21.70;;;4.30;99.90;;;;;;4968916;28;20204;-79
2021/01/23 05:01:13;;;;;;;34.67;23.97;;;4.30;99.90;;;;;;4968811;28;20208;-79
2021/01/23 05:04:00;;;;;;;34.03;23.43;;;4.20;99.90;;;;;;4967108;28;20237;-80
2021/01/23 05:06:27;;;;;;;32.90;21.90;;;4.30;99.90;;;;;;4969144;28;20492;-79
2021/01/23 05:08:54;;;;;;;36.10;22.13;;;4.30;99.90;;;;;;4968860;28;20201;-78
2021/01/23 05:11:21;;;;;;;26.70;21.13;;;4.40;99.90;;;;;;4963806;28;21079;-80
2021/01/23 05:14:09;;;;;;;32.87;20.07;;;4.30;99.90;;;;;;4948955;29;20201;-81
2021/01/23 05:16:35;;;;;;;28.33;20.13;;;4.30;99.90;;;;;;4949826;28;20276;-80
2021/01/23 05:19:03;;;;;;;30.23;18.97;;;4.20;99.90;;;;;;4948672;28;20217;-80
2021/01/23 05:21:31;;;;;;;26.20;19.53;;;4.20;99.90;;;;;;4949298;29;20217;-80
2021/01/23 05:24:06;;;;;;;23.03;17.17;;;4.20;99.90;;;;;;4948972;28;20836;-81
2021/01/23 05:26:32;;;;;;;29.10;17.80;;;4.20;99.90;;;;;;4949336;29;20477;-81
2021/01/23 05:29:10;;;;;;;22.03;16.70;;;4.30;99.90;;;;;;4950029;28;20331;-79
2021/01/23 05:31:36;;;;;;;22.63;15.17;;;4.30;99.90;;;;;;4948754;29;20193;-80
2021/01/23 05:34:26;;;;;;;21.77;16.23;;;4.30;99.90;;;;;;4948750;29;20670;-79
2021/01/23 05:36:52;;;;;;;22.97;15.60;;;4.30;99.90;;;;;;4948336;28;20312;-80
2021/01/23 05:39:18;;;;;;;23.27;15.67;;;4.30;99.90;;;;;;4949019;29;20237;-81
2021/01/23 05:42:06;;;;;;;22.00;16.13;;;4.20;99.90;;;;;;4948828;28;20220;-79
2021/01/23 05:44:32;;;;;;;27.37;16.30;;;4.20;99.90;;;;;;4948898;28;20209;-79
2021/01/23 05:46:59;;;;;;;22.60;15.07;;;4.30;99.90;;;;;;4948095;28;20201;-79
2021/01/23 05:49:26;;;;;;;20.97;14.80;;;4.30;99.90;;;;;;4948152;29;20206;-78
2021/01/23 05:51:52;;;;;;;18.70;15.20;;;4.30;99.90;;;;;;4947797;29;20205;-78
2021/01/23 05:54:19;;;;;;;22.90;15.07;;;4.30;99.90;;;;;;4948865;29;20881;-78
2021/01/23 05:56:47;;;;;;;24.57;14.07;;;4.30;99.90;;;;;;4948664;28;20263;-80
2021/01/23 05:59:14;;;;;;;17.90;13.83;;;4.30;99.90;;;;;;4948703;28;20320;-79
2021/01/23 06:01:41;;;;;;;15.87;12.63;;;4.30;99.90;;;;;;4968513;28;20205;-81
2021/01/23 06:04:13;;;;;;;22.77;14.87;;;4.30;99.90;;;;;;4964063;28;20209;-79
2021/01/23 06:09:06;;;;;;;14.43;11.90;;;4.40;99.90;;;;;;4953871;23;20248;-82
2021/01/23 06:11:39;;;;;;;18.00;12.77;;;4.30;99.90;;;;;;4947699;29;20213;-78
2021/01/23 06:14:06;;;;;;;15.63;12.60;;;4.40;99.90;;;;;;4943737;28;21008;-78
2021/01/23 06:16:39;;;;;;;16.03;12.80;;;4.40;99.90;;;;;;4945739;29;20688;-77
2021/01/23 06:19:40;;;;;;;21.53;13.37;;;4.40;99.90;;;;;;4951139;29;20202;-81
2021/01/23 06:22:07;;;;;;;18.43;12.90;;;4.40;99.90;;;;;;4951876;29;20213;-80
2021/01/23 06:24:53;;;;;;;17.70;12.93;;;4.40;99.90;;;;;;4938949;29;20217;-81
2021/01/23 06:27:19;;;;;;;14.60;11.20;;;4.40;99.90;;;;;;4931807;29;20205;-81
2021/01/23 06:29:46;;;;;;;16.33;11.97;;;4.40;99.90;;;;;;4931470;29;20277;-81
2021/01/23 06:32:29;;;;;;;14.07;11.57;;;4.40;99.90;;;;;;4932038;29;20264;-80
2021/01/23 06:34:58;;;;;;;16.30;11.93;;;4.50;99.90;;;;;;4931395;29;20273;-80
2021/01/23 06:37:27;;;;;;;12.13;10.27;;;4.50;99.90;;;;;;4931110;29;20241;-79
2021/01/23 06:40:08;;;;;;;18.73;10.83;;;4.40;99.90;;;;;;4929296;29;20213;-81
2021/01/23 06:42:36;;;;;;;16.80;10.40;;;4.40;99.90;;;;;;4926382;29;20217;-79
2021/01/23 06:45:23;;;;;;;12.50;10.17;;;4.40;99.90;;;;;;4927103;29;20321;-77
2021/01/23 06:47:51;;;;;;;14.80;10.90;;;4.40;99.90;;;;;;4927214;29;20237;-79
2021/01/23 06:50:35;;;;;;;16.07;11.30;;;4.50;99.90;;;;;;4926593;29;20206;-80
2021/01/23 06:53:04;;;;;;;14.60;9.87;;;4.50;99.90;;;;;;4927370;29;20214;-78
2021/01/23 06:55:47;;;;;;;13.10;9.60;;;4.50;99.90;;;;;;4926464;29;20226;-81
2021/01/23 06:58:18;;;;;;;12.27;8.07;;;4.50;99.90;;;;;;4927784;29;20186;-80
2021/01/23 07:00:45;;;;;;;11.03;8.63;;;4.50;99.90;;;;;;4928970;29;20221;-82
2021/01/23 07:03:12;;;;;;;12.43;8.80;;;4.50;99.90;;;;;;4929357;29;20261;-82
2021/01/23 07:05:55;;;;;;;11.83;7.80;;;4.50;99.90;;;;;;4930362;29;20213;-82
2021/01/23 07:08:30;;;;;;;11.40;7.10;;;4.50;99.90;;;;;;4930537;29;20249;-79
2021/01/23 07:11:12;;;;;;;10.40;7.50;;;4.50;99.90;;;;;;4937011;29;20209;-82
2021/01/23 07:13:40;;;;;;;8.90;7.30;;;4.50;99.90;;;;;;4947665;29;20288;-79
2021/01/23 07:16:07;;;;;;;10.87;7.43;;;4.50;99.90;;;;;;4939351;29;20316;-81
2021/01/23 07:18:33;;;;;;;11.67;6.67;;;4.50;99.90;;;;;;4929062;29;20210;-82
2021/01/23 07:21:02;;;;;;;12.20;7.10;;;4.50;99.90;;;;;;4929105;29;20812;-82
2021/01/23 07:23:29;;;;;;;10.50;5.80;;;4.50;99.90;;;;;;4928154;29;20605;-82
2021/01/23 07:26:00;;;;;;;10.83;5.73;;;4.50;99.90;;;;;;4927557;29;20649;-81
2021/01/23 07:28:29;;;;;;;10.97;5.67;;;4.50;99.90;;;;;;4928298;29;20285;-81
2021/01/23 07:30:55;;;;;;;10.40;5.23;;;4.50;99.90;;;;;;4928236;29;20328;-81
2021/01/23 07:33:36;;;;;;;8.07;4.50;;;4.50;99.90;;;;;;4939885;23;20229;-79
2021/01/23 07:36:03;;;;;;;11.30;5.13;;;4.50;99.90;;;;;;4930457;29;20239;-82
2021/01/23 07:38:29;;;;;;;12.37;5.93;;;4.60;99.90;;;;;;4946412;29;20209;-82
2021/01/23 07:40:56;;;;;;;11.67;4.90;;;4.60;99.90;;;;;;4947840;29;20276;-82
2021/01/23 07:43:22;;;;;;;8.83;4.57;;;4.80;99.90;;;;;;4948385;29;20272;-81
2021/01/23 07:45:54;;;;;;;9.50;3.70;;;4.80;99.90;;;;;;4944670;29;20893;-81
2021/01/23 07:48:20;;;;;;;7.83;3.43;;;4.80;99.90;;;;;;4927386;29;20209;-80
2021/01/23 07:50:46;;;;;;;5.50;3.03;;;4.80;99.90;;;;;;4928777;29;20217;-82
2021/01/23 07:53:15;;;;;;;5.90;2.57;;;4.80;99.90;;;;;;4928204;29;20305;-80
2021/01/23 07:55:41;;;;;;;10.70;4.70;;;4.80;99.90;;;;;;4927275;29;20413;-79
2021/01/23 07:58:08;;;;;;;15.80;5.53;;;4.80;99.90;;;;;;4926325;29;20326;-81
2021/01/23 08:00:35;;;;;;;17.17;6.03;;;4.80;99.90;;;;;;4924746;29;20210;-82
2021/01/23 08:03:03;;;;;;;6.17;3.07;;;4.80;99.90;;;;;;4925904;29;20210;-82
2021/01/23 08:05:47;;;;;;;9.57;3.30;;;4.90;99.90;;;;;;4927226;29;20870;-80
2021/01/23 08:08:28;;;;;;;7.40;3.00;;;4.90;99.90;;;;;;4926391;29;20237;-82
2021/01/23 08:10:55;;;;;;;6.80;3.07;;;5.00;99.90;;;;;;4926662;29;20305;-81
2021/01/23 08:13:25;;;;;;;4.80;3.10;;;5.00;99.90;;;;;;4926235;29;20205;-82
2021/01/23 08:15:52;;;;;;;9.33;3.47;;;5.00;99.90;;;;;;4926035;29;20230;-80
2021/01/23 08:18:21;;;;;;;8.23;3.10;;;5.00;99.90;;;;;;4926217;29;20220;-81
2021/01/23 08:35:26;;;;;;;4.83;1.93;;;5.00;99.90;;;;;;4749204;29;20664;-80
2021/01/23 08:37:53;;;;;;;8.30;2.37;;;5.00;99.90;;;;;;4835134;29;20217;-82
2021/01/23 08:40:21;;;;;;;5.53;1.80;;;5.00;99.90;;;;;;4854633;29;20228;-81
2021/01/23 08:42:47;;;;;;;4.13;1.73;;;5.00;99.90;;;;;;4867637;29;20205;-82
2021/01/23 08:45:15;;;;;;;4.43;1.40;;;4.90;99.90;;;;;;4855036;29;20266;-84
2021/01/23 08:47:41;;;;;;;3.67;1.63;;;5.00;99.90;;;;;;4854475;29;20215;-82
2021/01/23 08:50:09;;;;;;;2.93;1.40;;;5.10;99.90;;;;;;4868849;29;20228;-79
2021/01/23 08:52:37;;;;;;;6.03;2.13;;;5.10;99.90;;;;;;4873847;29;20321;-80
2021/01/23 08:55:04;;;;;;;3.50;1.80;;;5.20;99.90;;;;;;4872914;29;20216;-79
2021/01/23 08:57:30;;;;;;;5.77;1.93;;;5.30;99.90;;;;;;4874031;29;20594;-81
2021/01/23 08:59:57;;;;;;;9.67;3.70;;;5.30;99.90;;;;;;4874258;29;20223;-81
2021/01/23 09:02:23;;;;;;;13.53;3.50;;;5.40;99.90;;;;;;4874528;29;20215;-80
2021/01/23 09:04:50;;;;;;;5.07;1.63;;;5.40;99.90;;;;;;4874047;29;20215;-80
2021/01/23 09:07:16;;;;;;;6.37;1.77;;;5.30;99.90;;;;;;4864206;29;20266;-81
2021/01/23 09:09:43;;;;;;;5.87;1.77;;;5.30;99.90;;;;;;4855450;29;20208;-82
2021/01/23 09:12:10;;;;;;;10.60;2.87;;;5.40;99.90;;;;;;4860873;29;20211;-80
2021/01/23 09:14:38;;;;;;;6.23;1.73;;;5.60;99.90;;;;;;4872997;29;20207;-81
2021/01/23 09:17:05;;;;;;;2.80;1.23;;;5.70;99.90;;;;;;4873346;29;20224;-79
2021/01/23 09:19:31;;;;;;;6.20;1.17;;;5.70;99.90;;;;;;4904729;23;20256;-78
2021/01/23 09:21:57;;;;;;;3.80;0.90;;;5.70;99.90;;;;;;4945467;29;20772;-78
2021/01/23 09:24:23;;;;;;;3.00;1.20;;;5.70;99.90;;;;;;4930534;29;20842;-81
2021/01/23 09:26:51;;;;;;;4.57;1.13;;;5.70;99.90;;;;;;4930539;29;20210;-80
2021/01/23 09:29:17;;;;;;;6.27;1.60;;;5.70;99.90;;;;;;4955187;28;20236;-82
2021/01/23 09:31:44;;;;;;;4.50;1.50;;;5.60;99.90;;;;;;4963773;29;20205;-81
2021/01/23 09:34:11;;;;;;;3.60;1.43;;;5.50;99.90;;;;;;4945003;29;20312;-79
2021/01/23 09:36:37;;;;;;;2.77;1.40;;;5.40;99.90;;;;;;4933197;29;20230;-77
2021/01/23 09:39:04;;;;;;;4.67;1.23;;;5.40;99.90;;;;;;4932304;29;20291;-81
2021/01/23 09:41:30;;;;;;;7.47;1.57;;;5.40;99.90;;;;;;4930818;29;20233;-80
2021/01/23 09:43:57;;;;;;;2.87;1.40;;;5.40;99.90;;;;;;4930826;29;20269;-81
2021/01/23 09:46:24;;;;;;;8.87;2.00;;;5.40;99.90;;;;;;4931056;29;20221;-82
2021/01/23 09:48:50;;;;;;;7.50;2.30;;;5.40;99.90;;;;;;4927925;29;20214;-82
2021/01/23 09:51:17;;;;;;;6.23;2.10;;;5.40;99.90;;;;;;4943317;29;20213;-82
2021/01/23 09:53:43;;;;;;;5.37;1.87;;;5.40;99.90;;;;;;4938695;29;20589;-82
2021/01/23 09:56:09;;;;;;;3.10;1.67;;;5.40;99.90;;;;;;4933947;29;20434;-83
2021/01/23 09:58:36;;;;;;;5.90;1.30;;;5.40;99.90;;;;;;4940854;29;20209;-81
2021/01/23 10:01:03;;;;;;;3.83;1.20;;;5.30;99.90;;;;;;4952111;29;20205;-82
2021/01/23 10:03:30;;;;;;;2.70;1.40;;;5.30;99.90;;;;;;4952847;29;20273;-82
2021/01/23 10:05:56;;;;;;;4.90;1.70;;;5.30;99.90;;;;;;4951779;29;20198;-82
2021/01/23 10:08:22;;;;;;;8.17;2.07;;;5.30;99.90;;;;;;4941334;29;20213;-81
2021/01/23 10:10:49;;;;;;;8.47;2.80;;;5.40;99.90;;;;;;4932654;29;20297;-80
2021/01/23 10:13:15;;;;;;;6.87;3.27;;;5.40;99.90;;;;;;4932176;29;20904;-83
2021/01/23 10:15:41;;;;;;;5.00;1.97;;;5.50;99.90;;;;;;4933485;29;20697;-82
2021/01/23 10:18:08;;;;;;;6.03;1.50;;;5.50;99.90;;;;;;4932520;29;20904;-82
2021/01/23 10:20:37;;;;;;;2.97;1.70;;;5.60;99.90;;;;;;4932085;29;20238;-83
2021/01/23 10:23:03;;;;;;;5.10;1.27;;;5.60;99.90;;;;;;4933669;29;20234;-83
2021/01/23 10:25:29;;;;;;;4.37;1.47;;;5.60;99.90;;;;;;4942612;29;20233;-80
2021/01/23 10:27:56;;;;;;;3.97;1.60;;;5.70;99.90;;;;;;4951483;29;20202;-81
2021/01/23 10:30:23;;;;;;;3.00;1.67;;;5.70;99.90;;;;;;4950775;28;20229;-82
2021/01/23 10:32:50;;;;;;;5.70;1.77;;;5.70;99.90;;;;;;4945077;29;20547;-83
2021/01/23 10:35:17;;;;;;;2.23;1.60;;;5.80;99.90;;;;;;4933575;29;20210;-83
2021/01/23 10:37:44;;;;;;;4.73;2.00;;;5.80;99.90;;;;;;4932730;29;20429;-84
2021/01/23 10:40:11;;;;;;;5.57;1.90;;;5.80;99.90;;;;;;4933079;29;20209;-83
2021/01/23 10:42:37;;;;;;;6.77;2.73;;;5.90;99.90;;;;;;4934444;29;20214;-84
2021/01/23 10:45:07;;;;;;;5.87;2.10;;;5.90;99.90;;;;;;4933141;29;20210;-84
2021/01/23 10:47:34;;;;;;;4.87;1.87;;;5.90;99.90;;;;;;4932171;29;20317;-84
2021/01/23 10:50:00;;;;;;;2.70;1.80;;;6.00;99.90;;;;;;4933087;29;20261;-84
2021/01/23 10:52:27;;;;;;;4.30;1.87;;;6.10;99.90;;;;;;4931228;29;20214;-82
2021/01/23 10:54:54;;;;;;;6.40;1.90;;;6.20;99.90;;;;;;4932220;29;20217;-82
2021/01/23 10:57:20;;;;;;;4.43;2.50;;;6.30;99.90;;;;;;4928359;29;20234;-83
2021/01/23 10:59:46;;;;;;;3.83;2.30;;;6.40;99.90;;;;;;4926603;29;20216;-82
2021/01/23 11:02:12;;;;;;;7.07;3.00;;;6.50;99.90;;;;;;4932917;29;20229;-83
2021/01/23 11:04:39;;;;;;;12.73;4.10;;;6.50;99.90;;;;;;4933368;29;20232;-83
2021/01/23 11:07:06;;;;;;;11.43;3.70;;;6.40;99.90;;;;;;4933304;29;20202;-83
2021/01/23 11:09:33;;;;;;;6.37;3.10;;;6.40;99.90;;;;;;4941855;29;20213;-84
2021/01/23 11:11:59;;;;;;;7.40;2.33;;;6.40;99.90;;;;;;4951527;29;20329;-82
2021/01/23 11:14:26;;;;;;;11.03;3.13;;;6.40;99.90;;;;;;4951441;29;20196;-85
2021/01/23 11:16:52;;;;;;;6.77;2.73;;;6.40;99.90;;;;;;4932740;29;20238;-83
2021/01/23 11:19:20;;;;;;;5.57;2.30;;;6.40;99.90;;;;;;4932821;29;20237;-83
2021/01/23 11:21:46;;;;;;;4.13;1.93;;;6.50;99.90;;;;;;4932871;29;20202;-84
2021/01/23 11:24:12;;;;;;;7.03;2.00;;;6.50;99.90;;;;;;4932140;29;20190;-82
2021/01/23 11:26:39;;;;;;;4.27;1.90;;;6.50;99.90;;;;;;4932022;29;20246;-82
2021/01/23 11:29:06;;;;;;;3.83;1.70;;;6.60;99.90;;;;;;4931006;29;20222;-83
2021/01/23 11:31:33;;;;;;;6.33;2.00;;;6.60;99.90;;;;;;4931280;29;20273;-82
2021/01/23 11:34:00;;;;;;;4.33;1.60;;;6.70;99.90;;;;;;4932323;29;20205;-83
2021/01/23 11:36:26;;;;;;;4.03;1.40;;;6.70;99.90;;;;;;4930806;29;20230;-82
2021/01/23 11:38:52;;;;;;;2.87;1.80;;;6.80;99.90;;;;;;4931256;29;20216;-84
2021/01/23 11:41:19;;;;;;;5.90;2.60;;;6.80;99.90;;;;;;4932477;29;20276;-83
2021/01/23 11:43:46;;;;;;;6.63;1.80;;;6.80;99.90;;;;;;4931270;29;20297;-83
2021/01/23 11:46:12;;;;;;;7.30;3.17;;;6.80;99.90;;;;;;4931656;29;20490;-83
2021/01/23 11:48:38;;;;;;;8.17;3.70;;;6.80;99.90;;;;;;4932817;29;20495;-83
2021/01/23 11:51:05;;;;;;;6.70;3.27;;;6.80;99.90;;;;;;4931904;29;20210;-79
2021/01/23 11:53:31;;;;;;;8.57;2.83;;;6.70;99.90;;;;;;4931006;29;20206;-82
2021/01/23 11:55:58;;;;;;;7.67;2.43;;;6.60;99.90;;;;;;4932427;29;20229;-82
2021/01/23 11:58:24;;;;;;;9.37;3.33;;;6.60;99.90;;;;;;4929638;29;20285;-80
2021/01/23 12:00:51;;;;;;;5.23;2.60;;;6.50;99.90;;;;;;4930308;29;20237;-82
2021/01/23 12:03:17;;;;;;;5.90;2.43;;;6.50;99.90;;;;;;4930183;29;20221;-79
2021/01/23 12:05:44;;;;;;;8.13;2.20;;;6.50;99.90;;;;;;4929239;29;20210;-81
2021/01/23 12:08:10;;;;;;;9.90;3.03;;;6.50;99.90;;;;;;4929545;29;20210;-82
2021/01/23 12:10:36;;;;;;;8.20;3.20;;;6.50;99.90;;;;;;4932605;29;20210;-87
2021/01/23 12:13:03;;;;;;;4.93;2.27;;;6.60;99.90;;;;;;4935786;29;20206;-85
2021/01/23 12:15:29;;;;;;;5.33;1.93;;;6.70;99.90;;;;;;4940034;29;20208;-85
2021/01/23 12:17:56;;;;;;;7.77;2.57;;;6.80;99.90;;;;;;4955863;29;20233;-88
2021/01/23 12:20:23;;;;;;;9.93;3.43;;;6.80;99.90;;;;;;4954241;29;20309;-82
2021/01/23 12:22:49;;;;;;;3.90;2.10;;;6.80;99.90;;;;;;4955003;29;20205;-83
2021/01/23 12:25:16;;;;;;;9.57;4.37;;;6.80;99.90;;;;;;4955136;29;20236;-84
2021/01/23 12:27:43;;;;;;;6.73;2.73;;;6.90;99.90;;;;;;4955130;29;20659;-85
2021/01/23 12:30:12;;;;;;;7.43;3.00;;;7.00;99.90;;;;;;4955544;28;20229;-85
2021/01/23 12:32:38;;;;;;;7.73;2.63;;;7.10;99.90;;;;;;4939073;28;20519;-83
2021/01/23 12:35:08;;;;;;;8.17;2.73;;;7.10;99.90;;;;;;4936368;29;20214;-84
2021/01/23 12:37:35;;;;;;;8.87;3.10;;;7.10;99.90;;;;;;4936811;29;20349;-85
2021/01/23 12:40:04;;;;;;;5.83;2.83;;;7.10;99.90;;;;;;4936801;29;20213;-86
2021/01/23 12:42:30;;;;;;;6.97;2.87;;;7.10;99.90;;;;;;4936440;29;20202;-85
2021/01/23 12:44:56;;;;;;;7.37;2.87;;;7.10;99.90;;;;;;4935430;29;20206;-85
2021/01/23 12:47:23;;;;;;;8.77;2.60;;;7.20;99.90;;;;;;4936463;29;20218;-88
2021/01/23 12:49:49;;;;;;;7.33;2.33;;;7.20;99.90;;;;;;4942202;29;20228;-87
2021/01/23 12:52:16;;;;;;;9.80;3.23;;;7.20;99.90;;;;;;4938047;29;20213;-84
2021/01/23 12:54:43;;;;;;;5.90;2.40;;;7.10;99.90;;;;;;4934472;29;20246;-85
2021/01/23 12:57:10;;;;;;;5.63;2.40;;;7.10;99.90;;;;;;4937985;29;20659;-84
2021/01/23 12:59:36;;;;;;;5.70;3.33;;;7.00;99.90;;;;;;4954234;29;20194;-82
2021/01/23 13:02:03;;;;;;;7.67;3.30;;;6.90;99.90;;;;;;4942197;29;20214;-83
2021/01/23 13:04:29;;;;;;;6.87;2.90;;;6.90;99.90;;;;;;4934450;29;20261;-84
2021/01/23 13:06:55;;;;;;;9.33;3.17;;;6.80;99.90;;;;;;4935006;29;20230;-84
2021/01/23 13:09:23;;;;;;;9.57;2.63;;;6.80;99.90;;;;;;4934234;29;20206;-84